Time;durP1;ratioP1;P1;durP2;ratioP2;P2;SDS_P1;SDS_P2;PMS_P1;PMS_P2;Temp;Humidity;BMP_temperature;BMP_pressure;BME280_temperature;BME280_humidity;BME280_pressure;Samples;Min_cycle;Max_cycle;Signal;HPM_P1;HPM_P2
2022/05/21 00:01:58;;;;;;;8.00;2.40;;;;;;;15.50;60.34;98366.08;104614;1274;74403;-26
2022/05/21 00:04:28;;;;;;;6.90;2.40;;;;;;;15.53;60.21;98363.63;104649;1274;61093;-26
2022/05/21 00:06:57;;;;;;;9.00;2.50;;;;;;;15.53;60.38;98364.08;104752;1274;62305;-25
2022/05/21 00:09:27;;;;;;;4.70;2.50;;;;;;;15.52;60.08;98361.63;104685;1274;74604;-25
2022/05/21 00:11:56;;;;;;;5.50;2.40;;;;;;;15.52;60.55;98362.09;104741;1274;75311;-26
2022/05/21 00:14:25;;;;;;;11.30;2.40;;;;;;;15.55;60.21;98354.06;104696;1272;74439;-26
2022/05/21 00:16:54;;;;;;;7.20;2.40;;;;;;;15.58;60.16;98353.52;104666;1271;62068;-26
2022/05/21 00:19:23;;;;;;;3.90;2.50;;;;;;;15.60;60.14;98357.75;104936;1271;61911;-25
2022/05/21 00:21:52;;;;;;;4.20;2.50;;;;;;;15.61;60.29;98356.91;104839;1271;75575;-25
2022/05/21 00:24:21;;;;;;;5.30;2.50;;;;;;;15.63;60.08;98360.35;104948;1271;76397;-25
2022/05/21 00:26:50;;;;;;;5.50;3.00;;;;;;;15.67;59.69;98358.15;104954;1271;73271;-26
2022/05/21 00:29:20;;;;;;;3.50;2.60;;;;;;;15.72;59.70;98358.73;104823;1274;60926;-25
2022/05/21 00:31:49;;;;;;;7.70;2.40;;;;;;;15.76;59.57;98357.87;104714;1271;62112;-25
2022/05/21 00:34:18;;;;;;;5.90;2.80;;;;;;;15.78;59.58;98363.52;104943;1271;76197;-25
2022/05/21 00:36:47;;;;;;;4.10;2.10;;;;;;;15.79;59.22;98363.14;104913;1271;75203;-26
2022/05/21 00:39:16;;;;;;;9.00;2.80;;;;;;;15.81;58.86;98355.34;104830;1271;72774;-26
2022/05/21 00:41:45;;;;;;;5.60;2.50;;;;;;;15.83;58.73;98353.21;104853;1271;62091;-26
2022/05/21 00:44:14;;;;;;;4.70;2.60;;;;;;;15.83;58.79;98355.25;104873;1271;61918;-26
2022/05/21 00:46:45;;;;;;;4.60;2.10;;;;;;;15.82;58.46;98350.86;104812;1271;75409;-26
2022/05/21 00:49:24;;;;;;;6.80;2.10;;;;;;;15.81;58.56;98350.13;104774;1271;74697;-25
2022/05/21 00:51:59;;;;;;;5.10;2.40;;;;;;;15.82;58.44;98359.14;104750;1271;75062;-25
2022/05/21 00:54:32;;;;;;;6.30;3.00;;;;;;;15.81;58.55;98348.41;104746;1271;61077;-25
2022/05/21 00:57:09;;;;;;;5.00;2.10;;;;;;;15.81;58.45;98350.68;104753;1271;62127;-25
2022/05/21 00:59:47;;;;;;;4.00;2.30;;;;;;;15.82;58.05;98350.73;104732;1274;75806;-25
2022/05/21 01:02:18;;;;;;;4.60;2.10;;;;;;;15.81;57.80;98344.99;104639;1271;76057;-25
2022/05/21 01:04:48;;;;;;;4.00;2.00;;;;;;;15.80;57.84;98344.45;104921;1271;74225;-25
2022/05/21 01:07:17;;;;;;;4.90;2.10;;;;;;;15.79;57.76;98341.43;104822;1271;61179;-25
2022/05/21 01:09:52;;;;;;;7.10;2.10;;;;;;;15.73;58.05;98340.61;104915;1271;61968;-25
2022/05/21 01:12:23;;;;;;;4.00;2.50;;;;;;;15.69;57.69;98342.55;104760;1271;75750;-26
2022/05/21 01:14:54;;;;;;;5.70;2.50;;;;;;;15.67;57.99;98343.63;104763;1271;75760;-26
2022/05/21 01:17:23;;;;;;;4.20;2.10;;;;;;;15.60;58.07;98344.88;104755;1271;73372;-26
2022/05/21 01:20:00;;;;;;;5.50;2.20;;;;;;;15.56;58.27;98349.36;104895;1271;61157;-25
2022/05/21 01:22:39;;;;;;;3.20;2.10;;;;;;;15.56;58.20;98354.61;104788;1274;62058;-25
2022/05/21 01:25:09;;;;;;;3.40;2.20;;;;;;;15.59;58.34;98350.17;104802;1271;74305;-25
2022/05/21 01:27:38;;;;;;;4.70;1.90;;;;;;;15.62;57.74;98339.13;104673;1271;76020;-25
2022/05/21 01:30:09;;;;;;;4.60;2.40;;;;;;;15.65;57.82;98335.55;104864;1271;74495;-25
2022/05/21 01:32:37;;;;;;;6.20;2.40;;;;;;;15.63;57.70;98335.68;104806;1271;61169;-25
2022/05/21 01:35:07;;;;;;;4.70;2.40;;;;;;;15.60;57.69;98331.43;104744;1274;61149;-26
2022/05/21 01:37:38;;;;;;;4.50;2.40;;;;;;;15.57;57.75;98324.92;104931;1271;74544;-25
2022/05/21 01:40:09;;;;;;;4.50;2.10;;;;;;;15.55;57.67;98323.23;104894;1271;76895;-26
2022/05/21 01:42:38;;;;;;;6.10;2.10;;;;;;;15.50;57.81;98318.85;104848;1271;73381;-26
2022/05/21 01:45:08;;;;;;;6.50;2.50;;;;;;;15.47;57.86;98315.13;104957;1271;61438;-25
2022/05/21 01:47:41;;;;;;;9.10;2.50;;;;;;;15.43;58.04;98316.28;104781;1271;61125;-25
2022/05/21 01:50:10;;;;;;;4.80;2.60;;;;;;;15.35;58.25;98316.98;104927;1271;75562;-25
2022/05/21 01:52:40;;;;;;;8.20;2.40;;;;;;;15.27;58.53;98317.48;104908;1271;75803;-26
2022/05/21 01:55:09;;;;;;;2.90;2.20;;;;;;;15.20;58.44;98314.97;104801;1271;73825;-25
2022/05/21 01:57:38;;;;;;;8.30;2.60;;;;;;;15.16;58.43;98311.36;104919;1271;61113;-26
2022/05/21 02:00:10;;;;;;;3.60;2.40;;;;;;;15.12;58.63;98303.47;104934;1271;61087;-25
2022/05/21 02:02:40;;;;;;;6.00;2.50;;;;;;;15.08;58.53;98297.80;104871;1271;75528;-25
2022/05/21 02:05:09;;;;;;;3.50;2.00;;;;;;;15.03;58.78;98296.93;104756;1271;75969;-26
2022/05/21 02:07:38;;;;;;;2.60;2.10;;;;;;;14.98;58.83;98291.73;104929;1271;75879;-25
2022/05/21 02:10:10;;;;;;;3.70;2.20;;;;;;;14.93;59.28;98288.27;104775;1271;62137;-25
2022/05/21 02:12:39;;;;;;;5.50;2.50;;;;;;;14.88;59.39;98290.40;104805;1272;61109;-25
2022/05/21 02:15:09;;;;;;;6.00;2.50;;;;;;;14.83;59.35;98290.55;104928;1271;74798;-25
2022/05/21 02:17:39;;;;;;;5.50;2.10;;;;;;;14.80;59.16;98280.27;104736;1272;75308;-25
2022/05/21 02:20:08;;;;;;;5.20;2.30;;;;;;;14.79;59.41;98272.19;104939;1271;73376;-26
2022/05/21 02:22:37;;;;;;;3.60;2.20;;;;;;;14.78;59.44;98273.55;104787;1274;62094;-26
2022/05/21 02:25:07;;;;;;;3.70;2.20;;;;;;;14.76;59.17;98276.01;104963;1271;61008;-25
2022/05/21 02:27:37;;;;;;;9.40;2.40;;;;;;;14.74;59.52;98282.31;104771;1271;75630;-25
2022/05/21 02:30:07;;;;;;;5.10;2.30;;;;;;;14.70;59.69;98283.62;104971;1271;77887;-26
2022/05/21 02:32:35;;;;;;;2.90;2.20;;;;;;;14.66;59.50;98277.42;104913;1271;72654;-25
2022/05/21 02:35:06;;;;;;;5.20;2.40;;;;;;;14.65;59.43;98271.54;104987;1271;61055;-25
2022/05/21 02:40:23;;;;;;;4.80;2.40;;;;;;;14.66;59.45;98263.21;104977;1271;75287;-26
2022/05/21 02:42:54;;;;;;;4.70;2.30;;;;;;;14.67;59.45;98259.48;104695;1272;76009;-25
2022/05/21 02:45:25;;;;;;;5.20;2.70;;;;;;;14.68;59.32;98255.29;104800;1271;74412;-25
2022/05/21 02:47:55;;;;;;;6.50;2.50;;;;;;;14.73;59.35;98251.88;104721;1272;61955;-25
2022/05/21 02:50:26;;;;;;;3.60;2.30;;;;;;;14.82;59.15;98250.73;104913;1270;61089;-25
2022/05/21 02:52:55;;;;;;;3.30;1.90;;;;;;;14.92;58.96;98249.46;104779;1273;75608;-26
2022/05/21 02:55:25;;;;;;;6.60;2.20;;;;;;;15.03;58.64;98256.05;104953;1271;76008;-25
2022/05/21 02:57:55;;;;;;;5.60;2.30;;;;;;;15.16;58.39;98262.13;104959;1271;73818;-25
2022/05/21 03:00:30;;;;;;;5.30;2.30;;;;;;;15.24;58.34;98257.35;104783;1271;61160;-25
2022/05/21 03:03:01;;;;;;;5.20;2.30;;;;;;;15.29;58.31;98251.15;104760;1271;61135;-25
2022/05/21 03:05:31;;;;;;;5.10;2.20;;;;;;;15.38;57.98;98251.45;104825;1272;76108;-26
2022/05/21 03:10:20;;;;;;;4.80;2.30;;;;;;;15.52;57.72;98255.47;104885;1271;75864;-25
2022/05/21 03:10:56;;;;;;;4.20;2.80;;;;;;;15.55;58.06;98264.86;104822;1271;74289;-25
2022/05/21 03:13:26;;;;;;;4.20;2.40;;;;;;;15.51;58.02;98263.60;104764;1271;62307;-25
2022/05/21 03:15:56;;;;;;;3.90;2.60;;;;;;;15.48;58.22;98270.09;104821;1271;62163;-26
2022/05/21 03:18:25;;;;;;;5.90;2.00;;;;;;;15.43;58.37;98257.12;104673;1271;74497;-25
2022/05/21 03:20:55;;;;;;;5.10;2.40;;;;;;;15.45;58.26;98251.16;104847;1271;75815;-25
2022/05/21 03:23:24;;;;;;;5.30;2.30;;;;;;;15.48;58.28;98248.21;104949;1271;74425;-25
2022/05/21 03:25:53;;;;;;;6.20;2.10;;;;;;;15.49;58.07;98248.80;104749;1274;62127;-25
2022/05/21 03:28:22;;;;;;;5.10;2.40;;;;;;;15.48;58.38;98245.77;104817;1271;61622;-26
2022/05/21 03:30:52;;;;;;;3.90;2.40;;;;;;;15.49;58.28;98248.00;104926;1271;75540;-25
2022/05/21 03:33:21;;;;;;;3.40;2.10;;;;;;;15.51;57.79;98245.03;104831;1272;75826;-25
2022/05/21 03:35:49;;;;;;;4.70;2.90;;;;;;;15.51;58.05;98242.25;104891;1271;74357;-25
2022/05/21 03:38:19;;;;;;;6.50;2.70;;;;;;;15.49;57.97;98233.91;104741;1272;62243;-25
2022/05/21 03:40:47;;;;;;;8.80;2.40;;;;;;;15.49;57.97;98227.90;104952;1271;61029;-26
2022/05/21 03:43:16;;;;;;;5.20;2.20;;;;;;;15.53;58.06;98223.11;104947;1271;75545;-25
2022/05/21 03:45:46;;;;;;;4.20;2.10;;;;;;;15.61;58.07;98218.24;105157;1271;76009;-25
2022/05/21 03:48:15;;;;;;;3.10;2.10;;;;;;;15.75;57.94;98223.98;105145;1271;74855;-25
2022/05/21 03:50:44;;;;;;;5.50;2.20;;;;;;;15.90;58.08;98223.14;105074;1272;61752;-25
2022/05/21 03:53:16;;;;;;;4.60;2.30;;;;;;;16.13;56.95;98218.66;104840;1271;62117;-26
2022/05/21 03:55:45;;;;;;;3.60;2.30;;;;;;;16.34;56.62;98220.21;104787;1272;75598;-25
2022/05/21 03:58:15;;;;;;;7.80;2.70;;;;;;;16.59;56.18;98213.98;104750;1274;76030;-25
2022/05/21 04:00:44;;;;;;;5.40;2.40;;;;;;;16.83;55.08;98210.35;104717;1271;73416;-25
2022/05/21 04:03:14;;;;;;;3.80;1.90;;;;;;;16.95;55.29;98202.85;104860;1271;61149;-25
2022/05/21 04:05:42;;;;;;;5.40;3.20;;;;;;;17.08;54.94;98191.62;104969;1271;61151;-25
2022/05/21 04:08:17;;;;;;;2.60;2.10;;;;;;;17.12;54.61;98189.40;104794;1274;75628;-25
2022/05/21 04:10:46;;;;;;;8.90;2.60;;;;;;;17.25;54.35;98192.94;104853;1271;76109;-25
2022/05/21 04:13:15;;;;;;;10.00;2.40;;;;;;;17.27;54.05;98193.20;104856;1271;74829;-25
2022/05/21 04:15:44;;;;;;;3.70;2.20;;;;;;;17.31;54.39;98193.23;104828;1271;61833;-25
2022/05/21 04:18:13;;;;;;;5.60;2.30;;;;;;;17.34;54.11;98191.40;104893;1271;61038;-26
2022/05/21 04:20:44;;;;;;;4.40;2.00;;;;;;;17.39;53.68;98191.36;104878;1271;75809;-25
2022/05/21 04:23:14;;;;;;;5.40;2.60;;;;;;;17.35;53.81;98185.50;104886;1271;77196;-25
2022/05/21 04:25:43;;;;;;;3.40;1.80;;;;;;;17.43;53.55;98179.45;104906;1271;73205;-25
2022/05/21 04:28:20;;;;;;;8.60;2.70;;;;;;;17.44;53.56;98178.00;104819;1271;62626;-25
2022/05/21 04:30:49;;;;;;;3.00;1.90;;;;;;;17.46;53.61;98176.11;104812;1274;61895;-25
2022/05/21 04:33:18;;;;;;;5.90;2.20;;;;;;;17.51;52.90;98178.94;104999;1271;73601;-25
2022/05/21 04:38:35;;;;;;;13.80;2.70;;;;;;;17.55;53.67;98180.80;104771;1271;74420;-25
2022/05/21 04:41:04;;;;;;;8.20;2.40;;;;;;;17.59;53.14;98179.28;104768;1274;62012;-25
2022/05/21 04:43:34;;;;;;;5.40;2.00;;;;;;;17.61;52.96;98179.19;104897;1271;62026;-25
2022/05/21 04:46:03;;;;;;;2.90;1.80;;;;;;;17.69;53.00;98181.16;104833;1272;74451;-25
2022/05/21 04:48:33;;;;;;;6.70;2.70;;;;;;;17.78;52.81;98175.19;104863;1271;76058;-26
2022/05/21 04:51:08;;;;;;;8.00;2.20;;;;;;;17.84;52.78;98177.70;104918;1271;74280;-25
2022/05/21 04:53:37;;;;;;;5.80;2.30;;;;;;;17.89;52.28;98171.65;104852;1271;62232;-25
2022/05/21 04:56:08;;;;;;;4.50;2.50;;;;;;;17.93;52.09;98168.47;104869;1271;61147;-25
2022/05/21 04:58:58;;;;;;;3.60;2.10;;;;;;;17.98;52.20;98171.83;104934;1271;75531;-25
2022/05/21 05:01:30;;;;;;;4.80;2.30;;;;;;;18.07;52.55;98167.81;104892;1271;75889;-25
2022/05/21 05:03:59;;;;;;;4.10;2.30;;;;;;;18.16;51.80;98164.59;104796;1271;73395;-24
2022/05/21 05:06:28;;;;;;;7.00;2.20;;;;;;;18.23;52.26;98163.73;104908;1270;62887;-25
2022/05/21 05:08:57;;;;;;;5.60;1.90;;;;;;;18.30;51.33;98160.54;104901;1268;62299;-24
2022/05/21 05:11:29;;;;;;;4.40;2.30;;;;;;;18.35;51.32;98154.30;104801;1271;75525;-24
2022/05/21 05:13:58;;;;;;;3.20;2.10;;;;;;;18.46;51.29;98147.45;104825;1271;76005;-24
2022/05/21 05:16:27;;;;;;;4.00;2.00;;;;;;;18.55;51.23;98143.33;104777;1274;74230;-24
2022/05/21 05:18:56;;;;;;;3.80;2.20;;;;;;;18.62;51.90;98141.76;104919;1271;62135;-24
2022/05/21 05:21:25;;;;;;;4.90;2.10;;;;;;;18.73;52.29;98128.48;104874;1271;61840;-25
2022/05/21 05:23:55;;;;;;;4.70;2.20;;;;;;;18.83;50.91;98116.92;104886;1271;75106;-26
2022/05/21 05:26:24;;;;;;;2.80;2.20;;;;;;;18.84;51.05;98118.64;104886;1271;75051;-26
2022/05/21 05:28:53;;;;;;;6.90;2.10;;;;;;;18.93;51.04;98116.88;104887;1271;74426;-26
2022/05/21 05:31:22;;;;;;;8.00;2.60;;;;;;;18.91;50.66;98120.23;104814;1271;61131;-26
2022/05/21 05:33:52;;;;;;;6.50;2.30;;;;;;;19.00;50.65;98118.35;104869;1270;63926;-26
2022/05/21 05:36:22;;;;;;;5.00;2.40;;;;;;;19.06;50.33;98113.36;104820;1271;75912;-25
2022/05/21 05:38:51;;;;;;;3.10;2.10;;;;;;;18.99;50.76;98111.08;104885;1271;75020;-26
2022/05/21 05:41:20;;;;;;;4.20;2.10;;;;;;;19.06;50.80;98112.95;104821;1271;73359;-26
2022/05/21 05:43:54;;;;;;;10.60;2.20;;;;;;;19.09;50.80;98106.83;104851;1271;61223;-26
2022/05/21 05:46:25;;;;;;;5.80;2.10;;;;;;;19.02;50.77;98095.46;104844;1271;61263;-26
2022/05/21 05:48:55;;;;;;;6.70;2.70;;;;;;;19.00;51.33;98082.17;104931;1271;75542;-25
2022/05/21 05:51:24;;;;;;;5.60;2.10;;;;;;;18.94;50.67;98075.92;104786;1274;76052;-26
2022/05/21 05:53:53;;;;;;;6.30;2.40;;;;;;;18.86;51.08;98074.46;104870;1271;74372;-26
2022/05/21 05:56:22;;;;;;;4.20;2.10;;;;;;;18.82;51.14;98075.34;104783;1274;61096;-26
2022/05/21 06:01:39;;;;;;;3.90;2.00;;;;;;;18.94;51.57;98073.46;104922;1271;75542;-26
2022/05/21 06:04:07;;;;;;;3.20;2.10;;;;;;;19.03;51.40;98077.93;104943;1271;75748;-26
2022/05/21 06:06:38;;;;;;;7.00;2.00;;;;;;;19.13;51.61;98076.88;104707;1274;74285;-26
2022/05/21 06:09:07;;;;;;;4.60;1.90;;;;;;;19.11;51.71;98075.20;104910;1270;62222;-26
2022/05/21 06:11:38;;;;;;;5.60;2.00;;;;;;;19.19;52.30;98069.11;104862;1271;62026;-26
2022/05/21 06:14:06;;;;;;;6.70;2.30;;;;;;;19.18;51.44;98058.04;104616;1274;74615;-26
2022/05/21 06:16:35;;;;;;;3.40;2.10;;;;;;;19.14;50.84;98047.39;105169;1271;76140;-26
2022/05/21 06:19:06;;;;;;;3.30;2.30;;;;;;;19.14;50.32;98042.62;104881;1271;73812;-26
2022/05/21 06:21:36;;;;;;;5.90;2.20;;;;;;;19.12;50.65;98041.36;104780;1274;61123;-26
2022/05/21 06:24:05;;;;;;;6.40;2.60;;;;;;;19.20;51.21;98036.85;104819;1274;61124;-26
2022/05/21 06:26:34;;;;;;;8.10;2.20;;;;;;;19.22;50.90;98035.86;104969;1271;75430;-26
2022/05/21 06:29:03;;;;;;;7.50;2.30;;;;;;;19.22;50.30;98033.91;104868;1271;75030;-26
2022/05/21 06:31:32;;;;;;;3.20;2.20;;;;;;;19.07;50.16;98027.35;104809;1271;74797;-26
2022/05/21 06:34:01;;;;;;;7.80;2.40;;;;;;;19.01;50.71;98027.40;104829;1271;61882;-26
2022/05/21 06:36:31;;;;;;;9.50;2.40;;;;;;;19.00;50.81;98020.75;104808;1272;61727;-26
2022/05/21 06:39:00;;;;;;;4.20;2.20;;;;;;;18.94;51.39;98019.97;104772;1271;77462;-26
2022/05/21 06:41:31;;;;;;;10.50;2.10;;;;;;;18.80;51.92;98008.81;104818;1271;74790;-25
2022/05/21 06:43:59;;;;;;;5.30;2.50;;;;;;;18.71;53.02;97999.65;104759;1271;74606;-25
2022/05/21 06:46:28;;;;;;;5.60;1.90;;;;;;;18.64;54.08;98018.30;104825;1271;61114;-26
2022/05/21 06:48:59;;;;;;;5.70;1.80;;;;;;;18.54;53.91;98024.87;104907;1271;61785;-26
2022/05/21 06:51:28;;;;;;;2.30;1.80;;;;;;;18.49;54.10;98029.22;104883;1271;73270;-26
2022/05/21 06:53:57;;;;;;;5.50;2.40;;;;;;;18.41;55.02;98040.27;104926;1271;74978;-24
2022/05/21 06:56:26;;;;;;;6.70;2.60;;;;;;;18.21;56.12;98031.67;104882;1271;74274;-24
2022/05/21 06:58:55;;;;;;;3.20;2.00;;;;;;;17.95;57.47;98033.97;104874;1271;61150;-24
2022/05/21 07:01:24;;;;;;;6.40;2.00;;;;;;;17.79;58.37;98033.91;104842;1271;61155;-25
2022/05/21 07:03:53;;;;;;;4.30;2.30;;;;;;;17.68;60.57;98033.86;104771;1271;75506;-25
2022/05/21 07:09:10;;;;;;;4.90;2.30;;;;;;;17.41;64.37;98042.45;104898;1271;72914;-25
2022/05/21 07:11:44;;;;;;;5.10;2.10;;;;;;;17.29;63.75;98044.59;104872;1271;61164;-25
2022/05/21 07:14:13;;;;;;;5.80;2.70;;;;;;;17.19;63.15;98046.84;104867;1271;61274;-25
2022/05/21 07:16:43;;;;;;;8.40;2.20;;;;;;;17.08;63.51;98049.64;104889;1271;74579;-25
2022/05/21 07:19:11;;;;;;;3.40;2.20;;;;;;;17.05;63.02;98039.62;104967;1271;75812;-25
2022/05/21 07:21:40;;;;;;;6.90;2.10;;;;;;;17.10;62.68;98039.02;104764;1271;73461;-25
2022/05/21 07:24:09;;;;;;;3.30;1.90;;;;;;;17.18;62.71;98029.16;104983;1271;61145;-25
2022/05/21 07:26:38;;;;;;;3.40;2.20;;;;;;;17.29;62.51;98021.40;105145;1274;62026;-24
2022/05/21 07:29:07;;;;;;;9.20;2.20;;;;;;;17.44;62.07;98019.02;105099;1271;75668;-24
2022/05/21 07:31:36;;;;;;;3.40;2.20;;;;;;;17.58;61.59;98015.48;104843;1271;75838;-24
2022/05/21 07:34:05;;;;;;;4.10;2.30;;;;;;;17.66;62.08;98011.86;104926;1271;74419;-25
2022/05/21 07:36:34;;;;;;;3.70;1.90;;;;;;;17.71;62.92;98012.65;104890;1271;61838;-24
2022/05/21 07:39:03;;;;;;;7.20;2.10;;;;;;;17.73;62.92;98016.26;105142;1271;63619;-24
2022/05/21 07:41:32;;;;;;;6.20;2.10;;;;;;;17.74;62.33;98018.17;104936;1270;75600;-24
2022/05/21 07:44:01;;;;;;;3.40;1.60;;;;;;;17.75;63.11;98010.33;104824;1271;75178;-24
2022/05/21 07:46:30;;;;;;;4.50;2.20;;;;;;;18.36;60.91;98007.30;104801;1271;73460;-24
2022/05/21 07:48:59;;;;;;;3.00;1.80;;;;;;;19.08;59.77;98005.67;104843;1271;62202;-24
2022/05/21 07:51:30;;;;;;;2.40;1.60;;;;;;;19.32;58.67;97999.95;104813;1271;62181;-24
2022/05/21 07:53:59;;;;;;;2.40;1.60;;;;;;;19.29;58.54;97992.61;104763;1272;75312;-24
2022/05/21 07:56:30;;;;;;;10.70;2.60;;;;;;;19.15;60.29;97984.11;104956;1271;75799;-24
2022/05/21 07:58:59;;;;;;;2.80;2.30;;;;;;;18.99;62.45;97969.05;104914;1271;74867;-24
2022/05/21 08:01:28;;;;;;;7.40;2.40;;;;;;;18.81;64.66;97971.92;104893;1271;61151;-25
2022/05/21 08:03:57;;;;;;;7.90;2.70;;;;;;;18.77;64.57;97972.91;104900;1271;61031;-25
2022/05/21 08:06:26;;;;;;;8.00;4.50;;;;;;;18.84;65.33;97974.12;104920;1271;74531;-25
2022/05/21 08:08:57;;;;;;;9.90;4.00;;;;;;;18.92;63.55;97968.67;104802;1271;76029;-25
2022/05/21 08:11:29;;;;;;;6.70;3.10;;;;;;;19.00;62.38;97960.80;104925;1271;74422;-24
2022/05/21 08:13:58;;;;;;;5.00;3.10;;;;;;;19.10;62.37;97958.02;104898;1271;61251;-25
2022/05/21 08:16:28;;;;;;;5.20;2.30;;;;;;;19.20;62.63;97941.80;104871;1269;61760;-24
2022/05/21 08:18:57;;;;;;;3.70;2.90;;;;;;;19.24;62.40;97927.66;104785;1271;74272;-24
2022/05/21 08:21:26;;;;;;;3.90;3.00;;;;;;;19.30;63.18;97927.02;104785;1271;74538;-24
2022/05/21 08:26:59;;;;;;;4.60;2.00;;;;;;;20.27;62.58;97908.19;104975;1271;62158;-24
2022/05/21 08:29:32;;;;;;;3.90;2.30;;;;;;;21.09;59.62;97900.75;104860;1271;61153;-24
2022/05/21 08:32:03;;;;;;;4.40;3.00;;;;;;;21.25;58.97;97896.33;104647;1271;75325;-24
2022/05/21 08:34:32;;;;;;;5.10;2.60;;;;;;;21.15;58.25;97892.74;104831;1271;75498;-25
2022/05/21 08:37:01;;;;;;;3.30;2.90;;;;;;;21.04;58.69;97892.58;104959;1271;73220;-24
2022/05/21 08:39:31;;;;;;;6.40;3.10;;;;;;;20.87;57.87;97889.91;104919;1271;62159;-24
2022/05/21 08:42:26;;;;;;;5.10;3.10;;;;;;;20.74;58.21;97885.04;104814;1271;62101;-24
2022/05/21 08:45:05;;;;;;;3.50;2.60;;;;;;;20.76;58.39;97878.75;104744;1271;75595;-25
2022/05/21 08:47:36;;;;;;;5.20;2.70;;;;;;;20.94;58.55;97875.77;104874;1271;76042;-24
2022/05/21 08:50:13;;;;;;;4.10;2.60;;;;;;;21.16;58.60;97873.48;104724;1271;74158;-25
2022/05/21 08:52:57;;;;;;;5.00;2.80;;;;;;;21.32;57.60;97878.36;104794;1271;61874;-25
2022/05/21 08:55:32;;;;;;;5.30;2.70;;;;;;;21.58;58.55;97876.39;104818;1271;62021;-25
2022/05/21 08:58:03;;;;;;;5.50;3.10;;;;;;;21.79;57.41;97878.52;104676;1271;75493;-25
2022/05/21 09:00:35;;;;;;;4.40;2.80;;;;;;;21.96;56.42;97865.59;104963;1271;76012;-25
2022/05/21 09:03:17;;;;;;;5.10;3.00;;;;;;;22.05;55.89;97862.36;104797;1271;74442;-25
2022/05/21 09:06:18;;;;;;;4.20;2.60;;;;;;;22.05;54.80;97858.35;104659;1271;62202;-26
2022/05/21 09:08:51;;;;;;;7.30;2.50;;;;;;;22.12;53.37;97850.69;104784;1271;62149;-25
2022/05/21 09:11:29;;;;;;;3.50;2.80;;;;;;;22.27;53.51;97849.55;104812;1271;74500;-25
2022/05/21 09:13:58;;;;;;;5.00;2.10;;;;;;;22.44;51.95;97843.80;104897;1271;75991;-25
2022/05/21 09:19:14;;;;;;;6.90;2.30;;;;;;;22.42;49.64;97833.67;104794;1271;61900;-25
2022/05/21 09:21:46;;;;;;;5.80;2.10;;;;;;;22.29;49.51;97826.95;105096;1271;62157;-25
2022/05/21 09:24:39;;;;;;;2.90;1.80;;;;;;;22.39;49.80;97832.08;104957;1270;75390;-25
2022/05/21 09:27:23;;;;;;;6.10;1.80;;;;;;;22.45;49.24;97826.80;104791;1271;75053;-25
2022/05/21 09:29:54;;;;;;;3.80;1.60;;;;;;;22.47;48.95;97825.25;104987;1272;72646;-23
2022/05/21 09:32:33;;;;;;;9.00;2.20;;;;;;;22.58;48.96;97821.91;105099;1271;62130;-24
2022/05/21 09:35:05;;;;;;;4.10;2.00;;;;;;;22.65;48.51;97815.55;105107;1271;61032;-24
2022/05/21 09:37:34;;;;;;;5.50;2.30;;;;;;;22.73;48.22;97811.15;105137;1271;74562;-24
2022/05/21 09:40:31;;;;;;;2.90;1.80;;;;;;;22.80;48.34;97803.48;105007;1271;75977;-24
2022/05/21 09:45:48;;;;;;;3.70;1.90;;;;;;;22.84;48.63;97797.02;105095;1271;62118;-24
2022/05/21 09:48:18;;;;;;;3.20;1.50;;;;;;;23.01;47.66;97790.83;105099;1271;62208;-24
2022/05/21 09:50:49;;;;;;;4.60;1.50;;;;;;;23.41;47.29;97788.80;105140;1271;75546;-24
2022/05/21 09:53:25;;;;;;;5.40;1.70;;;;;;;23.57;46.31;97779.56;104898;1271;76058;-24
2022/05/21 09:56:03;;;;;;;6.10;1.60;;;;;;;23.63;46.11;97778.36;105104;1271;74461;-24
2022/05/21 09:58:38;;;;;;;2.00;1.40;;;;;;;23.49;45.92;97778.52;104843;1271;62053;-24
2022/05/21 10:01:09;;;;;;;7.90;1.80;;;;;;;23.32;46.51;97774.05;104768;1271;61004;-25
2022/05/21 10:03:50;;;;;;;7.00;1.60;;;;;;;23.17;47.46;97781.73;104906;1271;75876;-26
2022/05/21 10:06:25;;;;;;;3.10;1.50;;;;;;;23.09;47.59;97778.01;104786;1271;76432;-24
2022/05/21 10:12:22;;;;;;;19.00;2.00;;;;;;;22.82;50.26;97777.83;105132;1271;61266;-24
2022/05/21 10:15:08;;;;;;;6.00;1.50;;;;;;;22.75;50.67;97770.42;104925;1271;61883;-24
2022/05/21 10:17:48;;;;;;;15.50;1.60;;;;;;;22.68;51.04;97776.55;104797;1271;75108;-24
2022/05/21 10:20:26;;;;;;;13.60;2.20;;;;;;;22.95;51.31;97779.98;104832;1271;75945;-24
2022/05/21 10:23:12;;;;;;;6.70;1.70;;;;;;;23.45;51.71;97780.15;105098;1271;74555;-24
2022/05/21 10:26:06;;;;;;;16.10;2.20;;;;;;;23.23;51.92;97782.41;104895;1271;62101;-24
2022/05/21 10:29:09;;;;;;;8.80;1.40;;;;;;;22.89;51.72;97775.10;104672;1271;388420;-24
2022/05/21 10:32:13;;;;;;;7.90;1.30;;;;;;;22.60;51.78;97760.48;104700;1271;75441;-24
2022/05/21 10:35:01;;;;;;;;;;;;;;;22.63;51.54;97772.65;105006;1271;74692;-24
2022/05/21 10:37:49;;;;;;;7.30;1.30;;;;;;;22.79;51.76;97779.73;104908;1271;73229;-24
2022/05/21 10:40:42;;;;;;;7.90;1.40;;;;;;;22.72;52.03;97781.94;105142;1271;61212;-24
2022/05/21 10:43:12;;;;;;;;;;;;;;;22.81;51.81;97767.42;105164;1271;61844;-24
2022/05/21 10:45:41;;;;;;;4.90;1.10;;;;;;;23.20;51.28;97774.24;105169;1271;75272;-24
2022/05/21 10:48:20;;;;;;;8.90;1.30;;;;;;;22.75;51.72;97773.61;105140;1271;75998;-24
2022/05/21 10:50:55;;;;;;;5.70;1.40;;;;;;;22.36;54.59;97785.32;105004;1271;74392;-24
2022/05/21 10:53:30;;;;;;;9.70;2.00;;;;;;;22.10;57.76;97783.55;104898;1271;61053;-24
2022/05/21 10:56:09;;;;;;;6.70;1.30;;;;;;;21.93;60.14;97783.70;104825;1271;61126;-24
2022/05/21 10:58:58;;;;;;;4.80;1.10;;;;;;;22.48;59.47;97787.91;104785;1271;73490;-24
2022/05/21 11:01:38;;;;;;;7.60;1.60;;;;;;;22.78;59.17;97789.29;104977;1271;75761;-24
2022/05/21 11:04:22;;;;;;;5.60;2.10;;;;;;;22.79;57.60;97770.09;104758;1274;74243;-24
2022/05/21 11:07:13;;;;;;;12.50;1.60;;;;;;;23.05;56.76;97760.11;105092;1271;61119;-24
2022/05/21 11:09:55;;;;;;;4.50;1.40;;;;;;;23.36;56.14;97758.55;105104;1271;61392;-24
2022/05/21 11:12:28;;;;;;;11.10;2.30;;;;;;;23.39;54.76;97741.23;105108;1271;73760;-24
2022/05/21 11:15:19;;;;;;;11.30;2.10;;;;;;;23.29;54.55;97737.20;104970;1271;75833;-25
2022/05/21 11:18:00;;;;;;;7.80;1.70;;;;;;;23.36;55.50;97758.96;104704;1271;74251;-24
2022/05/21 11:20:35;;;;;;;12.20;1.80;;;;;;;23.67;54.04;97766.21;105091;1271;61191;-24
2022/05/21 11:23:22;;;;;;;10.60;2.40;;;;;;;23.60;53.53;97751.54;104750;1271;61134;-24
2022/05/21 11:25:57;;;;;;;3.90;2.30;;;;;;;23.73;51.87;97734.41;104829;1271;75494;-24
2022/05/21 11:28:29;;;;;;;10.20;2.40;;;;;;;23.71;51.13;97742.63;104912;1271;76192;-24
2022/05/21 11:31:06;;;;;;;10.20;1.60;;;;;;;23.34;51.71;97735.23;104839;1271;74425;-24
2022/05/21 11:39:15;;;;;;;8.40;2.00;;;;;;;23.21;52.42;97729.92;105081;1271;75531;-24
2022/05/21 11:41:53;;;;;;;10.00;2.10;;;;;;;23.39;52.87;97749.52;105105;1271;74909;-25
2022/05/21 11:47:21;;;;;;;11.40;2.50;;;;;;;23.39;51.92;97762.73;104797;1271;62066;-25
2022/05/21 11:49:57;;;;;;;6.20;1.60;;;;;;;22.92;53.17;97764.21;104927;1271;61043;-25
2022/05/21 11:52:29;;;;;;;7.60;2.20;;;;;;;22.80;53.11;97755.56;104759;1271;75574;-26
2022/05/21 11:56:08;;;;;;;5.30;1.90;;;;;;;22.43;52.29;97752.17;101770;1310;600712;-24
2022/05/21 11:58:59;;;;;;;6.90;1.60;;;;;;;22.12;53.13;97729.94;104313;1285;61274;-24
2022/05/21 12:01:40;;;;;;;11.00;2.40;;;;;;;22.06;55.00;97773.96;104487;1284;61125;-24
2022/05/21 12:04:45;;;;;;;9.00;1.80;;;;;;;22.09;53.42;97768.41;104329;1286;73063;-24
2022/05/21 12:07:17;;;;;;;9.30;2.00;;;;;;;21.90;53.27;97759.31;104476;1284;75994;-24
2022/05/21 12:10:12;;;;;;;5.50;2.40;;;;;;;21.84;53.76;97774.11;103583;1281;265932;-24
2022/05/21 12:13:03;;;;;;;9.00;1.90;;;;;;;21.89;54.07;97764.68;104278;1283;61913;-24
2022/05/21 12:15:50;;;;;;;7.80;2.30;;;;;;;21.86;55.04;97787.02;104110;1284;61361;-24
2022/05/21 12:18:38;;;;;;;3.40;2.00;;;;;;;21.95;54.57;97775.31;104427;1281;72966;-24
2022/05/21 12:24:03;;;;;;;3.90;1.60;;;;;;;21.98;53.76;97772.62;104516;1281;74365;-24
2022/05/21 12:26:35;;;;;;;3.60;2.10;;;;;;;21.90;53.61;97770.32;104357;1281;62090;-24